sensor_id;sensor_type;location;lat;lon;timestamp;pressure;altitude;pressure_sealevel;temperature;humidity
17936;BME280;9093;52.062;4.508;2023-02-22T00:00:58;101866.44;;;8.52;77.18
17936;BME280;9093;52.062;4.508;2023-02-22T00:03:50;101857.63;;;8.50;77.02
17936;BME280;9093;52.062;4.508;2023-02-22T00:06:31;101854.13;;;8.48;76.97
17936;BME280;9093;52.062;4.508;2023-02-22T00:09:11;101851.44;;;8.48;77.11
17936;BME280;9093;52.062;4.508;2023-02-22T00:11:53;101854.19;;;8.46;77.10
17936;BME280;9093;52.062;4.508;2023-02-22T00:14:33;101848.00;;;8.46;76.89
17936;BME280;9093;52.062;4.508;2023-02-22T00:17:13;101857.75;;;8.45;77.02
17936;BME280;9093;52.062;4.508;2023-02-22T00:19:55;101850.72;;;8.43;76.88
17936;BME280;9093;52.062;4.508;2023-02-22T00:22:35;101848.06;;;8.43;76.68
17936;BME280;9093;52.062;4.508;2023-02-22T00:25:17;101845.38;;;8.44;76.75
17936;BME280;9093;52.062;4.508;2023-02-22T00:27:58;101843.63;;;8.43;76.88
17936;BME280;9093;52.062;4.508;2023-02-22T00:30:39;101845.41;;;8.43;76.85
17936;BME280;9093;52.062;4.508;2023-02-22T00:33:22;101836.66;;;8.39;76.72
17936;BME280;9093;52.062;4.508;2023-02-22T00:36:03;101841.09;;;8.39;76.84
17936;BME280;9093;52.062;4.508;2023-02-22T00:38:43;101841.13;;;8.37;76.62
17936;BME280;9093;52.062;4.508;2023-02-22T00:41:23;101850.06;;;8.35;77.02
17936;BME280;9093;52.062;4.508;2023-02-22T00:44:04;101847.50;;;8.32;76.91
17936;BME280;9093;52.062;4.508;2023-02-22T00:46:44;101836.09;;;8.27;77.07
17936;BME280;9093;52.062;4.508;2023-02-22T00:49:24;101838.75;;;8.27;76.87
17936;BME280;9093;52.062;4.508;2023-02-22T00:52:05;101834.41;;;8.23;76.71
17936;BME280;9093;52.062;4.508;2023-02-22T00:54:45;101838.84;;;8.22;76.72
17936;BME280;9093;52.062;4.508;2023-02-22T00:57:26;101834.38;;;8.24;76.98
17936;BME280;9093;52.062;4.508;2023-02-22T01:00:08;101832.59;;;8.25;76.94
17936;BME280;9093;52.062;4.508;2023-02-22T01:02:52;101828.19;;;8.24;76.79
17936;BME280;9093;52.062;4.508;2023-02-22T01:05:33;101830.94;;;8.21;76.72
17936;BME280;9093;52.062;4.508;2023-02-22T01:08:15;101830.13;;;8.17;76.76
17936;BME280;9093;52.062;4.508;2023-02-22T01:10:56;101826.66;;;8.15;76.74
17936;BME280;9093;52.062;4.508;2023-02-22T01:13:37;101824.00;;;8.15;76.75
17936;BME280;9093;52.062;4.508;2023-02-22T01:16:17;101823.94;;;8.17;76.59
17936;BME280;9093;52.062;4.508;2023-02-22T01:24:38;101816.78;;;8.20;76.70
17936;BME280;9093;52.062;4.508;2023-02-22T01:27:18;101814.97;;;8.21;76.43
17936;BME280;9093;52.062;4.508;2023-02-22T01:29:59;101812.34;;;8.19;76.75
17936;BME280;9093;52.062;4.508;2023-02-22T01:32:40;101815.06;;;8.18;76.53
17936;BME280;9093;52.062;4.508;2023-02-22T01:35:24;101807.25;;;8.12;76.63
17936;BME280;9093;52.062;4.508;2023-02-22T01:38:07;101802.06;;;8.07;76.44
17936;BME280;9093;52.062;4.508;2023-02-22T01:40:49;101809.22;;;8.05;76.45
17936;BME280;9093;52.062;4.508;2023-02-22T01:43:31;101803.88;;;8.05;76.49
17936;BME280;9093;52.062;4.508;2023-02-22T01:46:19;101796.81;;;8.04;76.69
17936;BME280;9093;52.062;4.508;2023-02-22T01:49:03;101791.50;;;8.04;76.36
17936;BME280;9093;52.062;4.508;2023-02-22T01:51:49;101797.78;;;8.01;76.29
17936;BME280;9093;52.062;4.508;2023-02-22T01:54:48;101791.75;;;7.96;76.66
17936;BME280;9093;52.062;4.508;2023-02-22T01:57:34;101798.88;;;7.94;76.49
17936;BME280;9093;52.062;4.508;2023-02-22T02:00:17;101794.53;;;7.90;76.56
17936;BME280;9093;52.062;4.508;2023-02-22T02:03:05;101791.31;;;7.79;76.52
17936;BME280;9093;52.062;4.508;2023-02-22T02:05:50;101786.16;;;7.73;76.62
17936;BME280;9093;52.062;4.508;2023-02-22T02:11:23;101775.69;;;7.67;76.27
17936;BME280;9093;52.062;4.508;2023-02-22T02:14:06;101772.28;;;7.62;76.45
17936;BME280;9093;52.062;4.508;2023-02-22T02:16:49;101766.97;;;7.62;76.31
17936;BME280;9093;52.062;4.508;2023-02-22T02:22:35;101768.06;;;7.55;76.37
17936;BME280;9093;52.062;4.508;2023-02-22T02:44:07;101753.34;;;7.42;76.17
17936;BME280;9093;52.062;4.508;2023-02-22T02:46:32;101735.88;;;7.33;76.06
17936;BME280;9093;52.062;4.508;2023-02-22T02:49:18;101734.16;;;7.31;76.30
17936;BME280;9093;52.062;4.508;2023-02-22T02:52:00;101729.75;;;7.30;76.24
17936;BME280;9093;52.062;4.508;2023-02-22T02:54:42;101721.72;;;7.33;76.07
17936;BME280;9093;52.062;4.508;2023-02-22T02:57:24;101715.53;;;7.32;76.13
17936;BME280;9093;52.062;4.508;2023-02-22T03:00:06;101719.09;;;7.31;76.03
17936;BME280;9093;52.062;4.508;2023-02-22T03:03:14;101712.91;;;7.31;76.22
17936;BME280;9093;52.062;4.508;2023-02-22T03:18:22;101705.84;;;7.30;76.20
17936;BME280;9093;52.062;4.508;2023-02-22T03:23:49;101696.22;;;7.25;76.42
17936;BME280;9093;52.062;4.508;2023-02-22T03:29:43;101679.38;;;7.26;76.22
17936;BME280;9093;52.062;4.508;2023-02-22T03:32:28;101669.66;;;7.25;76.21
17936;BME280;9093;52.062;4.508;2023-02-22T03:35:13;101677.53;;;7.28;76.56
17936;BME280;9093;52.062;4.508;2023-02-22T03:37:59;101669.66;;;7.25;76.30
17936;BME280;9093;52.062;4.508;2023-02-22T03:40:48;101659.09;;;7.22;76.24
17936;BME280;9093;52.062;4.508;2023-02-22T03:43:35;101660.84;;;7.23;76.34
17936;BME280;9093;52.062;4.508;2023-02-22T03:46:17;101654.66;;;7.23;76.36
17936;BME280;9093;52.062;4.508;2023-02-22T03:49:09;101658.19;;;7.23;76.40
17936;BME280;9093;52.062;4.508;2023-02-22T03:51:51;101654.69;;;7.21;76.51
17936;BME280;9093;52.062;4.508;2023-02-22T03:54:32;101643.22;;;7.21;76.32
17936;BME280;9093;52.062;4.508;2023-02-22T03:57:42;101644.06;;;7.21;76.51
17936;BME280;9093;52.062;4.508;2023-02-22T04:00:24;101637.84;;;7.22;76.35
17936;BME280;9093;52.062;4.508;2023-02-22T04:03:05;101633.47;;;7.21;76.27
17936;BME280;9093;52.062;4.508;2023-02-22T04:05:46;101631.75;;;7.20;76.56
17936;BME280;9093;52.062;4.508;2023-02-22T04:08:26;101623.81;;;7.19;76.47
17936;BME280;9093;52.062;4.508;2023-02-22T04:11:07;101620.28;;;7.18;76.60
17936;BME280;9093;52.062;4.508;2023-02-22T04:13:47;101617.69;;;7.15;76.48
17936;BME280;9093;52.062;4.508;2023-02-22T04:16:27;101619.53;;;7.13;76.51
17936;BME280;9093;52.062;4.508;2023-02-22T04:19:08;101621.28;;;7.14;76.32
17936;BME280;9093;52.062;4.508;2023-02-22T04:21:48;101616.91;;;7.12;76.41
17936;BME280;9093;52.062;4.508;2023-02-22T04:24:28;101598.34;;;7.10;76.53
17936;BME280;9093;52.062;4.508;2023-02-22T04:27:09;101605.41;;;7.11;76.58
17936;BME280;9093;52.062;4.508;2023-02-22T04:29:49;101601.84;;;7.12;76.42
17936;BME280;9093;52.062;4.508;2023-02-22T04:32:29;101600.97;;;7.12;76.62
17936;BME280;9093;52.062;4.508;2023-02-22T04:35:10;101608.16;;;7.08;76.59
17936;BME280;9093;52.062;4.508;2023-02-22T04:37:50;101604.69;;;7.06;76.48
17936;BME280;9093;52.062;4.508;2023-02-22T04:40:31;101609.09;;;7.07;76.42
17936;BME280;9093;52.062;4.508;2023-02-22T04:43:11;101602.84;;;7.08;76.68
17936;BME280;9093;52.062;4.508;2023-02-22T04:45:51;101600.19;;;7.08;76.61
17936;BME280;9093;52.062;4.508;2023-02-22T04:48:32;101597.44;;;7.11;76.64
17936;BME280;9093;52.062;4.508;2023-02-22T04:51:12;101591.31;;;7.09;76.34
17936;BME280;9093;52.062;4.508;2023-02-22T04:53:52;101583.47;;;7.05;76.58
17936;BME280;9093;52.062;4.508;2023-02-22T04:56:33;101587.91;;;7.04;76.77
17936;BME280;9093;52.062;4.508;2023-02-22T04:59:13;101577.38;;;7.01;76.57
17936;BME280;9093;52.062;4.508;2023-02-22T05:01:54;101586.25;;;7.00;76.60
17936;BME280;9093;52.062;4.508;2023-02-22T05:04:37;101585.34;;;7.01;76.91
17936;BME280;9093;52.062;4.508;2023-02-22T05:07:17;101580.94;;;7.00;77.21
17936;BME280;9093;52.062;4.508;2023-02-22T05:09:58;101582.69;;;7.01;76.54
17936;BME280;9093;52.062;4.508;2023-02-22T05:12:38;101586.25;;;7.00;76.69
17936;BME280;9093;52.062;4.508;2023-02-22T05:15:20;101582.72;;;7.00;76.62
17936;BME280;9093;52.062;4.508;2023-02-22T05:18:00;101581.84;;;6.99;76.81
17936;BME280;9093;52.062;4.508;2023-02-22T05:20:41;101577.47;;;6.98;76.76
17936;BME280;9093;52.062;4.508;2023-02-22T05:23:21;101578.31;;;7.00;76.65
17936;BME280;9093;52.062;4.508;2023-02-22T05:26:01;101571.22;;;7.01;76.60
17936;BME280;9093;52.062;4.508;2023-02-22T05:28:41;101557.97;;;6.99;76.66
17936;BME280;9093;52.062;4.508;2023-02-22T05:31:22;101557.97;;;6.99;76.83
17936;BME280;9093;52.062;4.508;2023-02-22T05:34:02;101561.47;;;7.01;76.72
17936;BME280;9093;52.062;4.508;2023-02-22T05:36:43;101566.78;;;7.01;76.70
17936;BME280;9093;52.062;4.508;2023-02-22T05:39:23;101565.97;;;6.98;76.97
17936;BME280;9093;52.062;4.508;2023-02-22T05:42:03;101563.28;;;6.99;76.70
17936;BME280;9093;52.062;4.508;2023-02-22T05:44:43;101572.94;;;7.02;76.68
17936;BME280;9093;52.062;4.508;2023-02-22T05:47:24;101565.84;;;7.02;76.81
17936;BME280;9093;52.062;4.508;2023-02-22T05:50:05;101560.59;;;7.01;77.02
17936;BME280;9093;52.062;4.508;2023-02-22T05:52:46;101553.53;;;7.00;76.74
17936;BME280;9093;52.062;4.508;2023-02-22T05:55:27;101544.75;;;6.96;76.87
17936;BME280;9093;52.062;4.508;2023-02-22T05:58:08;101543.84;;;6.97;76.79
17936;BME280;9093;52.062;4.508;2023-02-22T06:00:48;101550.91;;;6.98;76.98
17936;BME280;9093;52.062;4.508;2023-02-22T06:03:28;101538.53;;;6.97;76.94
17936;BME280;9093;52.062;4.508;2023-02-22T06:06:08;101529.66;;;6.98;77.04
17936;BME280;9093;52.062;4.508;2023-02-22T06:08:49;101519.06;;;6.98;76.89
17936;BME280;9093;52.062;4.508;2023-02-22T06:11:29;101515.50;;;6.99;77.23
17936;BME280;9093;52.062;4.508;2023-02-22T06:14:10;101515.50;;;6.99;77.05
17936;BME280;9093;52.062;4.508;2023-02-22T06:16:54;101513.69;;;7.00;76.98
17936;BME280;9093;52.062;4.508;2023-02-22T06:19:34;101504.94;;;6.96;77.18
17936;BME280;9093;52.062;4.508;2023-02-22T06:22:17;101498.75;;;6.96;76.91
17936;BME280;9093;52.062;4.508;2023-02-22T06:24:57;101498.72;;;6.97;77.16
17936;BME280;9093;52.062;4.508;2023-02-22T06:27:37;101501.34;;;6.99;77.16
17936;BME280;9093;52.062;4.508;2023-02-22T06:30:21;101503.06;;;7.01;76.84
17936;BME280;9093;52.062;4.508;2023-02-22T06:33:02;101512.78;;;7.01;77.07
17936;BME280;9093;52.062;4.508;2023-02-22T06:35:42;101511.91;;;7.00;77.02
17936;BME280;9093;52.062;4.508;2023-02-22T06:38:25;101522.53;;;7.00;77.00
17936;BME280;9093;52.062;4.508;2023-02-22T06:41:07;101524.28;;;7.01;77.22
17936;BME280;9093;52.062;4.508;2023-02-22T06:43:48;101531.28;;;7.04;77.11
17936;BME280;9093;52.062;4.508;2023-02-22T06:46:28;101534.81;;;7.04;76.87
17936;BME280;9093;52.062;4.508;2023-02-22T06:49:08;101527.69;;;7.06;76.91
17936;BME280;9093;52.062;4.508;2023-02-22T06:51:49;101532.06;;;7.07;77.17
17936;BME280;9093;52.062;4.508;2023-02-22T06:54:29;101514.44;;;7.05;77.36
17936;BME280;9093;52.062;4.508;2023-02-22T06:57:12;101502.03;;;7.05;77.10
17936;BME280;9093;52.062;4.508;2023-02-22T06:59:52;101510.00;;;7.05;77.24
17936;BME280;9093;52.062;4.508;2023-02-22T07:02:32;101516.22;;;7.04;77.18
17936;BME280;9093;52.062;4.508;2023-02-22T07:05:16;101525.03;;;7.06;77.24
17936;BME280;9093;52.062;4.508;2023-02-22T07:08:02;101527.69;;;7.06;77.10
17936;BME280;9093;52.062;4.508;2023-02-22T07:10:43;101535.59;;;7.08;77.36
17936;BME280;9093;52.062;4.508;2023-02-22T07:13:23;101542.59;;;7.10;77.22
17936;BME280;9093;52.062;4.508;2023-02-22T07:16:04;101532.81;;;7.12;77.42
17936;BME280;9093;52.062;4.508;2023-02-22T07:18:45;101525.69;;;7.14;77.37
17936;BME280;9093;52.062;4.508;2023-02-22T07:21:26;101530.06;;;7.15;77.34
17936;BME280;9093;52.062;4.508;2023-02-22T07:24:07;101544.16;;;7.17;77.25
17936;BME280;9093;52.062;4.508;2023-02-22T07:26:47;101531.72;;;7.19;77.24
17936;BME280;9093;52.062;4.508;2023-02-22T07:29:27;101534.28;;;7.22;77.23
17936;BME280;9093;52.062;4.508;2023-02-22T07:32:08;101541.25;;;7.26;77.57
17936;BME280;9093;52.062;4.508;2023-02-22T07:34:49;101534.03;;;7.32;77.43
17936;BME280;9093;52.062;4.508;2023-02-22T07:37:29;101530.34;;;7.36;77.47
17936;BME280;9093;52.062;4.508;2023-02-22T07:40:10;101529.41;;;7.38;77.03
17936;BME280;9093;52.062;4.508;2023-02-22T07:42:59;101534.56;;;7.43;77.51
17936;BME280;9093;52.062;4.508;2023-02-22T07:45:39;101537.22;;;7.43;77.43
17936;BME280;9093;52.062;4.508;2023-02-22T07:48:21;101548.69;;;7.45;77.42
17936;BME280;9093;52.062;4.508;2023-02-22T07:51:02;101551.28;;;7.46;77.21
17936;BME280;9093;52.062;4.508;2023-02-22T07:53:43;101550.38;;;7.47;77.57
17936;BME280;9093;52.062;4.508;2023-02-22T07:56:23;101535.22;;;7.51;77.12
17936;BME280;9093;52.062;4.508;2023-02-22T07:59:03;101537.00;;;7.50;77.41
17936;BME280;9093;52.062;4.508;2023-02-22T08:01:44;101536.97;;;7.52;77.56
17936;BME280;9093;52.062;4.508;2023-02-22T08:04:24;101529.75;;;7.55;77.26
17936;BME280;9093;52.062;4.508;2023-02-22T08:07:04;101533.28;;;7.56;77.19
17936;BME280;9093;52.062;4.508;2023-02-22T08:09:45;101517.34;;;7.56;77.58
17936;BME280;9093;52.062;4.508;2023-02-22T08:12:25;101517.22;;;7.59;77.49
17936;BME280;9093;52.062;4.508;2023-02-22T08:15:08;101517.22;;;7.59;77.35
17936;BME280;9093;52.062;4.508;2023-02-22T08:17:49;101510.28;;;7.55;77.16
17936;BME280;9093;52.062;4.508;2023-02-22T08:20:29;101518.97;;;7.60;77.29
17936;BME280;9093;52.062;4.508;2023-02-22T08:23:12;101515.41;;;7.61;77.59
17936;BME280;9093;52.062;4.508;2023-02-22T08:25:53;101504.88;;;7.58;77.61
17936;BME280;9093;52.062;4.508;2023-02-22T08:28:33;101495.81;;;7.65;77.65
17936;BME280;9093;52.062;4.508;2023-02-22T08:31:14;101501.94;;;7.67;77.31
17936;BME280;9093;52.062;4.508;2023-02-22T08:33:54;101500.06;;;7.71;77.54
17936;BME280;9093;52.062;4.508;2023-02-22T08:36:35;101496.38;;;7.75;77.57
17936;BME280;9093;52.062;4.508;2023-02-22T08:39:15;101494.56;;;7.77;77.38
17936;BME280;9093;52.062;4.508;2023-02-22T08:41:55;101491.75;;;7.81;77.62
17936;BME280;9093;52.062;4.508;2023-02-22T08:44:37;101493.28;;;7.88;77.47
17936;BME280;9093;52.062;4.508;2023-02-22T08:47:18;101476.31;;;7.92;77.52
17936;BME280;9093;52.062;4.508;2023-02-22T08:49:58;101482.44;;;7.94;77.64
17936;BME280;9093;52.062;4.508;2023-02-22T08:52:38;101469.88;;;7.99;77.51
17936;BME280;9093;52.062;4.508;2023-02-22T08:55:23;101472.22;;;8.08;77.47
17936;BME280;9093;52.062;4.508;2023-02-22T08:58:05;101470.16;;;8.17;77.43
17936;BME280;9093;52.062;4.508;2023-02-22T09:00:48;101460.25;;;8.22;77.49
17936;BME280;9093;52.062;4.508;2023-02-22T09:03:28;101450.38;;;8.25;77.25
17936;BME280;9093;52.062;4.508;2023-02-22T09:06:09;101452.84;;;8.30;77.59
17936;BME280;9093;52.062;4.508;2023-02-22T09:08:49;101457.13;;;8.35;77.45
17936;BME280;9093;52.062;4.508;2023-02-22T09:11:29;101463.09;;;8.42;77.67
17936;BME280;9093;52.062;4.508;2023-02-22T09:14:09;101461.97;;;8.49;77.52
17936;BME280;9093;52.062;4.508;2023-02-22T09:16:50;101459.97;;;8.56;77.48
17936;BME280;9093;52.062;4.508;2023-02-22T09:19:30;101447.44;;;8.59;77.53
17936;BME280;9093;52.062;4.508;2023-02-22T09:22:11;101455.28;;;8.62;77.29
17936;BME280;9093;52.062;4.508;2023-02-22T09:24:51;101457.84;;;8.65;77.41
17936;BME280;9093;52.062;4.508;2023-02-22T09:27:31;101465.72;;;8.68;77.64
17936;BME280;9093;52.062;4.508;2023-02-22T09:30:24;101466.41;;;8.73;77.50
17936;BME280;9093;52.062;4.508;2023-02-22T09:33:16;101460.16;;;8.74;77.46
17936;BME280;9093;52.062;4.508;2023-02-22T09:35:57;101481.25;;;8.80;77.49
17936;BME280;9093;52.062;4.508;2023-02-22T09:38:39;101483.81;;;8.83;77.73
17936;BME280;9093;52.062;4.508;2023-02-22T09:41:34;101484.50;;;8.88;77.65
17936;BME280;9093;52.062;4.508;2023-02-22T09:44:27;101514.41;;;8.97;77.40
17936;BME280;9093;52.062;4.508;2023-02-22T09:47:15;101501.88;;;8.99;77.69
17936;BME280;9093;52.062;4.508;2023-02-22T09:50:08;101512.53;;;8.99;77.45
17936;BME280;9093;52.062;4.508;2023-02-22T09:52:59;101482.09;;;9.06;77.69
17936;BME280;9093;52.062;4.508;2023-02-22T09:55:47;101479.38;;;9.07;77.88
17936;BME280;9093;52.062;4.508;2023-02-22T09:58:34;101482.78;;;9.11;77.76
17936;BME280;9093;52.062;4.508;2023-02-22T10:04:23;101458.78;;;9.11;77.61
17936;BME280;9093;52.062;4.508;2023-02-22T10:07:21;101458.78;;;9.11;77.89
17936;BME280;9093;52.062;4.508;2023-02-22T10:10:05;101451.38;;;9.19;77.59
17936;BME280;9093;52.062;4.508;2023-02-22T10:15:45;101464.44;;;9.26;77.74
17936;BME280;9093;52.062;4.508;2023-02-22T10:27:45;101495.28;;;9.32;77.41
17936;BME280;9093;52.062;4.508;2023-02-22T10:30:31;101494.31;;;9.35;77.62
17936;BME280;9093;52.062;4.508;2023-02-22T10:34:04;101489.00;;;9.35;77.59
17936;BME280;9093;52.062;4.508;2023-02-22T10:36:25;101490.59;;;9.39;77.59
17936;BME280;9093;52.062;4.508;2023-02-22T10:39:32;101480.81;;;9.39;77.48
17936;BME280;9093;52.062;4.508;2023-02-22T10:42:13;101482.31;;;9.46;77.42
17936;BME280;9093;52.062;4.508;2023-02-22T10:44:54;101470.47;;;9.53;77.41
17936;BME280;9093;52.062;4.508;2023-02-22T10:47:35;101478.25;;;9.59;77.39
17936;BME280;9093;52.062;4.508;2023-02-22T10:50:17;101462.78;;;9.67;77.19
17936;BME280;9093;52.062;4.508;2023-02-22T10:53:00;101458.94;;;9.75;77.27
17936;BME280;9093;52.062;4.508;2023-02-22T10:56:06;101456.03;;;9.81;77.40
17936;BME280;9093;52.062;4.508;2023-02-22T10:58:51;101452.94;;;9.91;77.37
17936;BME280;9093;52.062;4.508;2023-02-22T11:01:37;101448.06;;;10.01;77.13
17936;BME280;9093;52.062;4.508;2023-02-22T11:04:21;101444.22;;;10.08;77.28
17936;BME280;9093;52.062;4.508;2023-02-22T11:10:05;101436.66;;;10.19;76.95
17936;BME280;9093;52.062;4.508;2023-02-22T11:12:48;101441.72;;;10.25;77.10
17936;BME280;9093;52.062;4.508;2023-02-22T11:15:30;101431.75;;;10.30;77.02
17936;BME280;9093;52.062;4.508;2023-02-22T11:18:36;101436.00;;;10.34;76.80
17936;BME280;9093;52.062;4.508;2023-02-22T11:21:21;101435.59;;;10.43;76.86
17936;BME280;9093;52.062;4.508;2023-02-22T11:24:05;101429.13;;;10.49;76.84
17936;BME280;9093;52.062;4.508;2023-02-22T11:26:50;101432.47;;;10.54;76.85
17936;BME280;9093;52.062;4.508;2023-02-22T11:29:33;101429.47;;;10.62;76.85
17936;BME280;9093;52.062;4.508;2023-02-22T11:32:18;101426.59;;;10.66;76.67
17936;BME280;9093;52.062;4.508;2023-02-22T11:35:55;101423.97;;;10.65;76.95
17936;BME280;9093;52.062;4.508;2023-02-22T11:38:38;101425.44;;;10.72;77.04
17936;BME280;9093;52.062;4.508;2023-02-22T11:41:20;101420.81;;;10.75;76.89
17936;BME280;9093;52.062;4.508;2023-02-22T11:44:24;101416.34;;;10.76;76.89
17936;BME280;9093;52.062;4.508;2023-02-22T11:47:10;101416.34;;;10.76;76.96
17936;BME280;9093;52.062;4.508;2023-02-22T11:49:51;101416.22;;;10.79;76.91
17936;BME280;9093;52.062;4.508;2023-02-22T11:52:40;101409.78;;;10.83;76.74
17936;BME280;9093;52.062;4.508;2023-02-22T11:55:38;101410.53;;;10.86;76.78
17936;BME280;9093;52.062;4.508;2023-02-22T12:01:30;101407.94;;;11.04;76.75
17936;BME280;9093;52.062;4.508;2023-02-22T12:07:27;101386.69;;;11.19;76.42
17936;BME280;9093;52.062;4.508;2023-02-22T12:19:54;101379.22;;;11.45;76.43
17936;BME280;9093;52.062;4.508;2023-02-22T12:22:39;101385.22;;;11.50;76.39
17936;BME280;9093;52.062;4.508;2023-02-22T12:25:30;101381.31;;;11.57;76.32
17936;BME280;9093;52.062;4.508;2023-02-22T12:28:20;101381.78;;;11.65;76.28
17936;BME280;9093;52.062;4.508;2023-02-22T12:31:09;101387.94;;;11.67;76.04
17936;BME280;9093;52.062;4.508;2023-02-22T12:34:18;101389.88;;;11.63;76.22
17936;BME280;9093;52.062;4.508;2023-02-22T12:43:11;101388.88;;;11.66;76.08
17936;BME280;9093;52.062;4.508;2023-02-22T12:46:12;101379.84;;;11.68;76.22
17936;BME280;9093;52.062;4.508;2023-02-22T12:51:47;101386.41;;;11.80;75.99
17936;BME280;9093;52.062;4.508;2023-02-22T12:54:44;101403.53;;;11.76;75.96
17936;BME280;9093;52.062;4.508;2023-02-22T13:00:42;101396.81;;;11.67;75.86
17936;BME280;9093;52.062;4.508;2023-02-22T13:03:35;101388.88;;;11.66;75.93
17936;BME280;9093;52.062;4.508;2023-02-22T13:12:23;101398.69;;;11.65;76.35
17936;BME280;9093;52.062;4.508;2023-02-22T13:18:39;101381.06;;;11.80;75.83
17936;BME280;9093;52.062;4.508;2023-02-22T13:21:28;101385.94;;;11.89;75.92
17936;BME280;9093;52.062;4.508;2023-02-22T13:27:12;101387.22;;;11.99;75.69
17936;BME280;9093;52.062;4.508;2023-02-22T13:29:57;101374.31;;;12.07;75.58
17936;BME280;9093;52.062;4.508;2023-02-22T13:32:51;101378.53;;;12.12;75.49
17936;BME280;9093;52.062;4.508;2023-02-22T13:38:58;101386.41;;;12.15;75.40
17936;BME280;9093;52.062;4.508;2023-02-22T13:41:50;101385.53;;;12.14;75.38
17936;BME280;9093;52.062;4.508;2023-02-22T13:44:51;101385.72;;;12.11;75.44
17936;BME280;9093;52.062;4.508;2023-02-22T13:47:47;101383.84;;;12.13;75.29
17936;BME280;9093;52.062;4.508;2023-02-22T13:54:07;101390.38;;;12.07;75.32
17936;BME280;9093;52.062;4.508;2023-02-22T13:56:49;101386.56;;;12.12;75.17
17936;BME280;9093;52.062;4.508;2023-02-22T13:59:34;101388.47;;;12.09;75.13
17936;BME280;9093;52.062;4.508;2023-02-22T14:02:57;101385.78;;;12.09;75.20
17936;BME280;9093;52.062;4.508;2023-02-22T14:11:05;101391.75;;;12.15;74.82
17936;BME280;9093;52.062;4.508;2023-02-22T14:16:37;101391.53;;;12.19;75.03
17936;BME280;9093;52.062;4.508;2023-02-22T14:19:18;101389.56;;;12.23;74.73
17936;BME280;9093;52.062;4.508;2023-02-22T14:22:04;101385.94;;;12.24;74.69
17936;BME280;9093;52.062;4.508;2023-02-22T14:24:46;101394.91;;;12.23;74.71
17936;BME280;9093;52.062;4.508;2023-02-22T14:27:38;101386.94;;;12.21;74.74
17936;BME280;9093;52.062;4.508;2023-02-22T14:30:34;101391.63;;;12.18;74.69
17936;BME280;9093;52.062;4.508;2023-02-22T14:34:20;101388.16;;;12.16;74.65
17936;BME280;9093;52.062;4.508;2023-02-22T14:36:53;101397.13;;;12.15;74.66
17936;BME280;9093;52.062;4.508;2023-02-22T14:39:37;101394.53;;;12.13;74.68
17936;BME280;9093;52.062;4.508;2023-02-22T14:50:59;101404.13;;;12.00;74.46
17936;BME280;9093;52.062;4.508;2023-02-22T14:53:45;101412.38;;;11.95;74.68
17936;BME280;9093;52.062;4.508;2023-02-22T14:56:43;101420.72;;;11.89;74.60
17936;BME280;9093;52.062;4.508;2023-02-22T14:59:29;101429.72;;;11.88;74.63
17936;BME280;9093;52.062;4.508;2023-02-22T15:02:12;101432.69;;;11.82;74.70
17936;BME280;9093;52.062;4.508;2023-02-22T15:04:53;101432.97;;;11.76;74.61
17936;BME280;9093;52.062;4.508;2023-02-22T15:07:34;101437.75;;;11.69;74.61
17936;BME280;9093;52.062;4.508;2023-02-22T15:13:30;101437.00;;;11.66;74.24
17936;BME280;9093;52.062;4.508;2023-02-22T15:16:12;101440.63;;;11.65;74.31
17936;BME280;9093;52.062;4.508;2023-02-22T15:18:57;101447.13;;;11.59;74.37
17936;BME280;9093;52.062;4.508;2023-02-22T15:21:44;101441.09;;;11.56;74.21
17936;BME280;9093;52.062;4.508;2023-02-22T15:24:44;101439.66;;;11.49;74.40
17936;BME280;9093;52.062;4.508;2023-02-22T15:27:34;101434.28;;;11.49;74.42
17936;BME280;9093;52.062;4.508;2023-02-22T15:30:24;101437.31;;;11.41;74.28
17936;BME280;9093;52.062;4.508;2023-02-22T15:33:17;101433.84;;;11.39;74.21
17936;BME280;9093;52.062;4.508;2023-02-22T15:36:03;101438.31;;;11.39;74.24
17936;BME280;9093;52.062;4.508;2023-02-22T15:38:48;101447.44;;;11.35;74.18
17936;BME280;9093;52.062;4.508;2023-02-22T15:41:32;101437.84;;;11.31;74.07
17936;BME280;9093;52.062;4.508;2023-02-22T15:44:12;101447.72;;;11.28;74.29
17936;BME280;9093;52.062;4.508;2023-02-22T15:46:53;101453.22;;;11.25;74.34
17936;BME280;9093;52.062;4.508;2023-02-22T15:49:35;101450.75;;;11.21;74.28
17936;BME280;9093;52.062;4.508;2023-02-22T15:52:23;101452.72;;;11.17;74.19
17936;BME280;9093;52.062;4.508;2023-02-22T15:55:09;101456.56;;;11.12;74.20
17936;BME280;9093;52.062;4.508;2023-02-22T15:57:50;101450.63;;;11.05;74.27
17936;BME280;9093;52.062;4.508;2023-02-22T16:00:34;101461.44;;;11.02;74.45
17936;BME280;9093;52.062;4.508;2023-02-22T16:03:19;101464.28;;;10.99;74.05
17936;BME280;9093;52.062;4.508;2023-02-22T16:07:00;101448.34;;;10.96;74.09
17936;BME280;9093;52.062;4.508;2023-02-22T16:09:22;101453.06;;;10.91;74.15
17936;BME280;9093;52.062;4.508;2023-02-22T16:12:09;101456.94;;;10.84;74.21
17936;BME280;9093;52.062;4.508;2023-02-22T16:14:50;101458.06;;;10.78;74.54
17936;BME280;9093;52.062;4.508;2023-02-22T16:17:36;101454.81;;;10.72;74.39
17936;BME280;9093;52.062;4.508;2023-02-22T16:23:21;101460.81;;;10.57;74.65
17936;BME280;9093;52.062;4.508;2023-02-22T16:26:27;101457.44;;;10.53;74.64
17936;BME280;9093;52.062;4.508;2023-02-22T16:29:07;101457.38;;;10.55;74.67
17936;BME280;9093;52.062;4.508;2023-02-22T16:31:48;101461.78;;;10.56;74.88
17936;BME280;9093;52.062;4.508;2023-02-22T16:34:28;101464.44;;;10.56;74.54
17936;BME280;9093;52.062;4.508;2023-02-22T16:37:19;101466.44;;;10.51;74.78
17936;BME280;9093;52.062;4.508;2023-02-22T16:40:01;101472.84;;;10.46;74.82
17936;BME280;9093;52.062;4.508;2023-02-22T16:42:41;101477.38;;;10.44;74.97
17936;BME280;9093;52.062;4.508;2023-02-22T16:45:21;101478.44;;;10.40;74.75
17936;BME280;9093;52.062;4.508;2023-02-22T16:48:16;101481.44;;;10.33;74.85
17936;BME280;9093;52.062;4.508;2023-02-22T16:51:06;101488.72;;;10.29;74.97
17936;BME280;9093;52.062;4.508;2023-02-22T16:53:49;101485.25;;;10.27;74.93
17936;BME280;9093;52.062;4.508;2023-02-22T16:56:29;101480.84;;;10.26;74.88